sensor_id;sensor_type;location;lat;lon;timestamp;P1;durP1;ratioP1;P2;durP2;ratioP2
11222;SDS011;5668;52.012;8.724;2023-04-08T00:01:10;6.27;;;5.50;;
11222;SDS011;5668;52.012;8.724;2023-04-08T00:03:37;6.43;;;5.83;;
11222;SDS011;5668;52.012;8.724;2023-04-08T00:06:05;6.47;;;5.43;;
11222;SDS011;5668;52.012;8.724;2023-04-08T00:08:34;5.73;;;4.90;;
11222;SDS011;5668;52.012;8.724;2023-04-08T00:11:01;7.57;;;5.90;;
11222;SDS011;5668;52.012;8.724;2023-04-08T00:13:28;6.53;;;5.53;;
11222;SDS011;5668;52.012;8.724;2023-04-08T00:15:55;6.60;;;6.00;;
11222;SDS011;5668;52.012;8.724;2023-04-08T00:18:25;6.73;;;5.63;;
11222;SDS011;5668;52.012;8.724;2023-04-08T00:20:53;6.67;;;5.50;;
11222;SDS011;5668;52.012;8.724;2023-04-08T00:23:21;6.30;;;5.67;;
11222;SDS011;5668;52.012;8.724;2023-04-08T00:25:49;6.50;;;5.90;;
11222;SDS011;5668;52.012;8.724;2023-04-08T00:28:17;7.00;;;6.10;;
11222;SDS011;5668;52.012;8.724;2023-04-08T00:30:45;7.40;;;5.70;;
11222;SDS011;5668;52.012;8.724;2023-04-08T00:33:12;6.70;;;6.00;;
11222;SDS011;5668;52.012;8.724;2023-04-08T00:35:39;6.60;;;5.90;;
11222;SDS011;5668;52.012;8.724;2023-04-08T00:38:08;6.33;;;5.73;;
11222;SDS011;5668;52.012;8.724;2023-04-08T00:40:36;6.57;;;5.80;;
11222;SDS011;5668;52.012;8.724;2023-04-08T00:43:04;6.20;;;5.60;;
11222;SDS011;5668;52.012;8.724;2023-04-08T00:45:32;6.13;;;5.53;;
11222;SDS011;5668;52.012;8.724;2023-04-08T00:48:03;6.67;;;5.93;;
11222;SDS011;5668;52.012;8.724;2023-04-08T00:50:30;6.23;;;5.63;;
11222;SDS011;5668;52.012;8.724;2023-04-08T00:52:58;6.13;;;5.43;;
11222;SDS011;5668;52.012;8.724;2023-04-08T00:55:25;6.17;;;5.53;;
11222;SDS011;5668;52.012;8.724;2023-04-08T00:57:52;6.60;;;5.40;;
11222;SDS011;5668;52.012;8.724;2023-04-08T01:00:22;5.77;;;5.17;;
11222;SDS011;5668;52.012;8.724;2023-04-08T01:02:54;6.33;;;5.73;;
11222;SDS011;5668;52.012;8.724;2023-04-08T01:05:33;6.60;;;5.90;;
11222;SDS011;5668;52.012;8.724;2023-04-08T01:08:11;6.20;;;5.60;;
11222;SDS011;5668;52.012;8.724;2023-04-08T01:10:41;6.17;;;5.57;;
11222;SDS011;5668;52.012;8.724;2023-04-08T01:13:11;6.30;;;5.70;;
11222;SDS011;5668;52.012;8.724;2023-04-08T01:15:42;5.57;;;5.07;;
11222;SDS011;5668;52.012;8.724;2023-04-08T01:18:12;6.60;;;5.90;;
11222;SDS011;5668;52.012;8.724;2023-04-08T01:20:41;5.60;;;5.10;;
11222;SDS011;5668;52.012;8.724;2023-04-08T01:23:12;6.33;;;5.40;;
11222;SDS011;5668;52.012;8.724;2023-04-08T01:25:47;6.80;;;6.10;;
11222;SDS011;5668;52.012;8.724;2023-04-08T01:28:16;6.83;;;6.10;;
11222;SDS011;5668;52.012;8.724;2023-04-08T01:30:45;7.07;;;6.37;;
11222;SDS011;5668;52.012;8.724;2023-04-08T01:33:14;6.93;;;6.23;;
11222;SDS011;5668;52.012;8.724;2023-04-08T01:35:43;7.77;;;5.80;;
11222;SDS011;5668;52.012;8.724;2023-04-08T01:38:13;6.07;;;5.57;;
11222;SDS011;5668;52.012;8.724;2023-04-08T01:40:43;6.50;;;5.83;;
11222;SDS011;5668;52.012;8.724;2023-04-08T01:43:13;6.43;;;5.80;;
11222;SDS011;5668;52.012;8.724;2023-04-08T01:45:42;6.60;;;6.00;;
11222;SDS011;5668;52.012;8.724;2023-04-08T01:48:11;6.37;;;5.77;;
11222;SDS011;5668;52.012;8.724;2023-04-08T01:50:40;8.00;;;6.30;;
11222;SDS011;5668;52.012;8.724;2023-04-08T01:53:10;5.77;;;5.17;;
11222;SDS011;5668;52.012;8.724;2023-04-08T01:55:38;6.47;;;5.87;;
11222;SDS011;5668;52.012;8.724;2023-04-08T01:58:11;6.03;;;5.10;;
11222;SDS011;5668;52.012;8.724;2023-04-08T02:00:43;6.27;;;5.67;;
11222;SDS011;5668;52.012;8.724;2023-04-08T02:03:11;6.10;;;5.50;;
11222;SDS011;5668;52.012;8.724;2023-04-08T02:05:39;6.10;;;5.50;;
11222;SDS011;5668;52.012;8.724;2023-04-08T02:08:06;6.73;;;5.37;;
11222;SDS011;5668;52.012;8.724;2023-04-08T02:10:34;6.03;;;5.53;;
11222;SDS011;5668;52.012;8.724;2023-04-08T02:13:01;7.90;;;5.27;;
11222;SDS011;5668;52.012;8.724;2023-04-08T02:15:30;5.90;;;5.30;;
11222;SDS011;5668;52.012;8.724;2023-04-08T02:18:04;5.77;;;5.10;;
11222;SDS011;5668;52.012;8.724;2023-04-08T02:20:40;5.77;;;5.20;;
11222;SDS011;5668;52.012;8.724;2023-04-08T02:23:13;5.77;;;5.17;;
11222;SDS011;5668;52.012;8.724;2023-04-08T02:25:44;8.07;;;4.80;;
11222;SDS011;5668;52.012;8.724;2023-04-08T02:28:14;4.93;;;4.47;;
11222;SDS011;5668;52.012;8.724;2023-04-08T02:30:45;5.97;;;4.83;;
11222;SDS011;5668;52.012;8.724;2023-04-08T02:33:15;5.57;;;4.93;;
11222;SDS011;5668;52.012;8.724;2023-04-08T02:35:45;7.00;;;5.03;;
11222;SDS011;5668;52.012;8.724;2023-04-08T02:38:14;6.07;;;4.73;;
11222;SDS011;5668;52.012;8.724;2023-04-08T02:40:42;5.50;;;4.60;;
11222;SDS011;5668;52.012;8.724;2023-04-08T02:43:09;5.40;;;4.90;;
11222;SDS011;5668;52.012;8.724;2023-04-08T02:45:37;4.77;;;4.33;;
11222;SDS011;5668;52.012;8.724;2023-04-08T02:48:09;5.07;;;4.50;;
11222;SDS011;5668;52.012;8.724;2023-04-08T02:50:36;5.07;;;4.37;;
11222;SDS011;5668;52.012;8.724;2023-04-08T02:53:03;5.00;;;4.50;;
11222;SDS011;5668;52.012;8.724;2023-04-08T02:55:31;4.97;;;4.47;;
11222;SDS011;5668;52.012;8.724;2023-04-08T02:57:58;5.03;;;4.53;;
11222;SDS011;5668;52.012;8.724;2023-04-08T03:00:25;5.27;;;4.77;;
11222;SDS011;5668;52.012;8.724;2023-04-08T03:02:52;7.30;;;5.17;;
11222;SDS011;5668;52.012;8.724;2023-04-08T03:05:21;5.53;;;4.90;;
11222;SDS011;5668;52.012;8.724;2023-04-08T03:07:49;5.67;;;4.40;;
11222;SDS011;5668;52.012;8.724;2023-04-08T03:10:18;5.03;;;4.53;;
11222;SDS011;5668;52.012;8.724;2023-04-08T03:12:46;6.33;;;4.83;;
11222;SDS011;5668;52.012;8.724;2023-04-08T03:15:13;4.67;;;4.27;;
11222;SDS011;5668;52.012;8.724;2023-04-08T03:17:40;5.30;;;4.80;;
11222;SDS011;5668;52.012;8.724;2023-04-08T03:20:09;5.00;;;4.50;;
11222;SDS011;5668;52.012;8.724;2023-04-08T03:22:39;5.23;;;4.63;;
11222;SDS011;5668;52.012;8.724;2023-04-08T03:25:07;7.33;;;4.90;;
11222;SDS011;5668;52.012;8.724;2023-04-08T03:27:35;4.60;;;4.20;;
11222;SDS011;5668;52.012;8.724;2023-04-08T03:30:03;5.33;;;4.83;;
11222;SDS011;5668;52.012;8.724;2023-04-08T03:32:31;5.13;;;4.67;;
11222;SDS011;5668;52.012;8.724;2023-04-08T03:34:58;5.37;;;4.87;;
11222;SDS011;5668;52.012;8.724;2023-04-08T03:37:26;7.03;;;5.40;;
11222;SDS011;5668;52.012;8.724;2023-04-08T03:39:54;5.77;;;5.17;;
11222;SDS011;5668;52.012;8.724;2023-04-08T03:42:22;5.70;;;5.10;;
11222;SDS011;5668;52.012;8.724;2023-04-08T03:44:49;5.20;;;4.70;;
11222;SDS011;5668;52.012;8.724;2023-04-08T03:47:16;6.03;;;5.10;;
11222;SDS011;5668;52.012;8.724;2023-04-08T03:49:43;5.33;;;4.90;;
11222;SDS011;5668;52.012;8.724;2023-04-08T03:52:11;5.93;;;5.33;;
11222;SDS011;5668;52.012;8.724;2023-04-08T03:54:38;6.33;;;5.30;;
11222;SDS011;5668;52.012;8.724;2023-04-08T03:57:06;6.37;;;5.73;;
11222;SDS011;5668;52.012;8.724;2023-04-08T03:59:36;5.97;;;5.47;;
11222;SDS011;5668;52.012;8.724;2023-04-08T04:02:03;6.50;;;5.80;;
11222;SDS011;5668;52.012;8.724;2023-04-08T04:04:30;6.93;;;6.10;;
11222;SDS011;5668;52.012;8.724;2023-04-08T04:06:58;5.93;;;5.43;;
11222;SDS011;5668;52.012;8.724;2023-04-08T04:09:25;7.33;;;6.07;;
11222;SDS011;5668;52.012;8.724;2023-04-08T04:11:53;7.10;;;6.40;;
11222;SDS011;5668;52.012;8.724;2023-04-08T04:14:21;7.10;;;6.40;;
11222;SDS011;5668;52.012;8.724;2023-04-08T04:16:49;6.93;;;6.23;;
11222;SDS011;5668;52.012;8.724;2023-04-08T04:19:16;7.10;;;6.43;;
11222;SDS011;5668;52.012;8.724;2023-04-08T04:21:43;7.43;;;6.63;;
11222;SDS011;5668;52.012;8.724;2023-04-08T04:24:10;7.23;;;6.33;;
11222;SDS011;5668;52.012;8.724;2023-04-08T04:26:39;7.47;;;6.77;;
11222;SDS011;5668;52.012;8.724;2023-04-08T04:29:06;7.63;;;6.93;;
11222;SDS011;5668;52.012;8.724;2023-04-08T04:31:35;7.83;;;6.83;;
11222;SDS011;5668;52.012;8.724;2023-04-08T04:34:02;7.57;;;6.87;;
11222;SDS011;5668;52.012;8.724;2023-04-08T04:36:29;8.77;;;7.73;;
11222;SDS011;5668;52.012;8.724;2023-04-08T04:38:56;8.50;;;7.63;;
11222;SDS011;5668;52.012;8.724;2023-04-08T04:41:24;8.20;;;7.40;;
11222;SDS011;5668;52.012;8.724;2023-04-08T04:43:52;9.07;;;7.60;;
11222;SDS011;5668;52.012;8.724;2023-04-08T04:46:19;10.83;;;7.33;;
11222;SDS011;5668;52.012;8.724;2023-04-08T04:48:47;8.17;;;7.10;;
11222;SDS011;5668;52.012;8.724;2023-04-08T04:51:15;9.80;;;8.03;;
11222;SDS011;5668;52.012;8.724;2023-04-08T04:53:42;7.90;;;7.10;;
11222;SDS011;5668;52.012;8.724;2023-04-08T04:56:09;8.00;;;7.20;;
11222;SDS011;5668;52.012;8.724;2023-04-08T04:58:36;8.90;;;8.00;;
11222;SDS011;5668;52.012;8.724;2023-04-08T05:01:04;8.27;;;7.57;;
11222;SDS011;5668;52.012;8.724;2023-04-08T05:03:31;8.70;;;7.70;;
11222;SDS011;5668;52.012;8.724;2023-04-08T05:06:00;8.60;;;7.73;;
11222;SDS011;5668;52.012;8.724;2023-04-08T05:08:27;8.80;;;7.90;;
11222;SDS011;5668;52.012;8.724;2023-04-08T05:10:54;8.30;;;7.50;;
11222;SDS011;5668;52.012;8.724;2023-04-08T05:13:23;8.57;;;7.73;;
11222;SDS011;5668;52.012;8.724;2023-04-08T05:15:50;10.33;;;7.60;;
11222;SDS011;5668;52.012;8.724;2023-04-08T05:18:18;8.23;;;7.33;;
11222;SDS011;5668;52.012;8.724;2023-04-08T05:20:45;8.07;;;7.27;;
11222;SDS011;5668;52.012;8.724;2023-04-08T05:23:14;28.37;;;17.10;;
11222;SDS011;5668;52.012;8.724;2023-04-08T05:25:41;48.13;;;36.43;;
11222;SDS011;5668;52.012;8.724;2023-04-08T05:28:08;79.30;;;70.07;;
11222;SDS011;5668;52.012;8.724;2023-04-08T05:30:36;48.23;;;43.33;;
11222;SDS011;5668;52.012;8.724;2023-04-08T05:33:03;58.07;;;52.27;;
11222;SDS011;5668;52.012;8.724;2023-04-08T05:35:30;51.57;;;45.77;;
11222;SDS011;5668;52.012;8.724;2023-04-08T05:37:57;31.57;;;26.10;;
11222;SDS011;5668;52.012;8.724;2023-04-08T05:40:26;43.23;;;32.67;;
11222;SDS011;5668;52.012;8.724;2023-04-08T05:42:53;82.07;;;54.80;;
11222;SDS011;5668;52.012;8.724;2023-04-08T05:45:20;32.30;;;24.33;;
11222;SDS011;5668;52.012;8.724;2023-04-08T05:47:48;32.23;;;23.43;;
11222;SDS011;5668;52.012;8.724;2023-04-08T05:50:15;60.63;;;43.60;;
11222;SDS011;5668;52.012;8.724;2023-04-08T05:52:44;63.37;;;50.60;;
11222;SDS011;5668;52.012;8.724;2023-04-08T05:55:11;87.63;;;75.23;;
11222;SDS011;5668;52.012;8.724;2023-04-08T05:57:40;131.67;;;117.77;;
11222;SDS011;5668;52.012;8.724;2023-04-08T06:00:08;100.53;;;90.77;;
11222;SDS011;5668;52.012;8.724;2023-04-08T06:02:36;69.23;;;62.80;;
11222;SDS011;5668;52.012;8.724;2023-04-08T06:05:04;70.10;;;63.90;;
11222;SDS011;5668;52.012;8.724;2023-04-08T06:07:32;165.40;;;147.37;;
11222;SDS011;5668;52.012;8.724;2023-04-08T06:09:59;169.17;;;144.37;;
11222;SDS011;5668;52.012;8.724;2023-04-08T06:12:26;174.93;;;151.03;;
11222;SDS011;5668;52.012;8.724;2023-04-08T06:14:56;197.93;;;176.83;;
11222;SDS011;5668;52.012;8.724;2023-04-08T06:17:23;129.87;;;117.27;;
11222;SDS011;5668;52.012;8.724;2023-04-08T06:19:50;69.10;;;62.80;;
11222;SDS011;5668;52.012;8.724;2023-04-08T06:22:18;58.47;;;52.67;;
11222;SDS011;5668;52.012;8.724;2023-04-08T06:24:45;45.23;;;40.90;;
11222;SDS011;5668;52.012;8.724;2023-04-08T06:27:14;38.70;;;35.03;;
11222;SDS011;5668;52.012;8.724;2023-04-08T06:29:41;44.33;;;40.07;;
11222;SDS011;5668;52.012;8.724;2023-04-08T06:32:10;29.37;;;26.43;;
11222;SDS011;5668;52.012;8.724;2023-04-08T06:34:37;19.90;;;17.90;;
11222;SDS011;5668;52.012;8.724;2023-04-08T06:37:05;19.97;;;17.87;;
11222;SDS011;5668;52.012;8.724;2023-04-08T06:39:32;21.80;;;19.57;;
11222;SDS011;5668;52.012;8.724;2023-04-08T06:41:59;14.83;;;13.27;;
11222;SDS011;5668;52.012;8.724;2023-04-08T06:44:27;11.70;;;10.57;;
11222;SDS011;5668;52.012;8.724;2023-04-08T06:46:54;9.43;;;8.43;;
11222;SDS011;5668;52.012;8.724;2023-04-08T06:49:23;11.93;;;9.23;;
11222;SDS011;5668;52.012;8.724;2023-04-08T06:51:51;11.37;;;10.23;;
11222;SDS011;5668;52.012;8.724;2023-04-08T06:54:18;11.57;;;10.37;;
11222;SDS011;5668;52.012;8.724;2023-04-08T06:56:45;12.30;;;11.00;;
11222;SDS011;5668;52.012;8.724;2023-04-08T06:59:13;11.07;;;10.07;;
11222;SDS011;5668;52.012;8.724;2023-04-08T07:01:40;11.40;;;10.30;;
11222;SDS011;5668;52.012;8.724;2023-04-08T07:04:07;14.93;;;13.33;;
11222;SDS011;5668;52.012;8.724;2023-04-08T07:06:36;16.23;;;14.63;;
11222;SDS011;5668;52.012;8.724;2023-04-08T07:09:03;19.63;;;17.70;;
11222;SDS011;5668;52.012;8.724;2023-04-08T07:11:30;32.80;;;29.50;;
11222;SDS011;5668;52.012;8.724;2023-04-08T07:13:58;26.17;;;23.57;;
11222;SDS011;5668;52.012;8.724;2023-04-08T07:16:25;16.10;;;14.57;;
11222;SDS011;5668;52.012;8.724;2023-04-08T07:18:52;13.90;;;12.60;;
11222;SDS011;5668;52.012;8.724;2023-04-08T07:21:21;14.37;;;13.00;;
11222;SDS011;5668;52.012;8.724;2023-04-08T07:23:49;13.37;;;12.07;;
11222;SDS011;5668;52.012;8.724;2023-04-08T07:26:16;17.37;;;15.73;;
11222;SDS011;5668;52.012;8.724;2023-04-08T07:28:44;21.53;;;19.33;;
11222;SDS011;5668;52.012;8.724;2023-04-08T07:31:12;22.37;;;19.97;;
11222;SDS011;5668;52.012;8.724;2023-04-08T07:33:40;23.60;;;21.20;;
11222;SDS011;5668;52.012;8.724;2023-04-08T07:36:09;20.30;;;18.13;;
11222;SDS011;5668;52.012;8.724;2023-04-08T07:38:37;20.10;;;18.00;;
11222;SDS011;5668;52.012;8.724;2023-04-08T07:41:06;20.47;;;18.27;;
11222;SDS011;5668;52.012;8.724;2023-04-08T07:43:33;22.23;;;19.80;;
11222;SDS011;5668;52.012;8.724;2023-04-08T07:46:01;18.30;;;16.40;;
11222;SDS011;5668;52.012;8.724;2023-04-08T07:48:29;11.53;;;10.27;;
11222;SDS011;5668;52.012;8.724;2023-04-08T07:50:56;11.10;;;9.83;;
11222;SDS011;5668;52.012;8.724;2023-04-08T07:53:27;12.73;;;10.10;;
11222;SDS011;5668;52.012;8.724;2023-04-08T07:55:55;12.50;;;10.57;;
11222;SDS011;5668;52.012;8.724;2023-04-08T07:58:24;12.33;;;10.33;;
11222;SDS011;5668;52.012;8.724;2023-04-08T08:00:51;14.20;;;10.97;;
11222;SDS011;5668;52.012;8.724;2023-04-08T08:03:19;12.20;;;10.40;;
11222;SDS011;5668;52.012;8.724;2023-04-08T08:05:46;16.83;;;14.53;;
11222;SDS011;5668;52.012;8.724;2023-04-08T08:08:13;194.53;;;149.00;;
11222;SDS011;5668;52.012;8.724;2023-04-08T08:10:40;75.47;;;59.93;;
11222;SDS011;5668;52.012;8.724;2023-04-08T08:13:08;26.27;;;21.17;;
11222;SDS011;5668;52.012;8.724;2023-04-08T08:15:37;22.80;;;19.73;;
11222;SDS011;5668;52.012;8.724;2023-04-08T08:18:05;34.30;;;30.77;;
11222;SDS011;5668;52.012;8.724;2023-04-08T08:20:34;97.37;;;87.60;;
11222;SDS011;5668;52.012;8.724;2023-04-08T08:23:01;59.30;;;51.93;;
11222;SDS011;5668;52.012;8.724;2023-04-08T08:25:28;59.83;;;53.63;;
11222;SDS011;5668;52.012;8.724;2023-04-08T08:27:56;49.47;;;44.10;;
11222;SDS011;5668;52.012;8.724;2023-04-08T08:30:23;65.80;;;58.67;;
11222;SDS011;5668;52.012;8.724;2023-04-08T08:32:53;107.33;;;96.57;;
11222;SDS011;5668;52.012;8.724;2023-04-08T08:35:23;116.10;;;104.27;;
11222;SDS011;5668;52.012;8.724;2023-04-08T08:37:50;107.03;;;95.63;;
11222;SDS011;5668;52.012;8.724;2023-04-08T08:40:17;83.17;;;74.67;;
11222;SDS011;5668;52.012;8.724;2023-04-08T08:42:48;105.83;;;94.97;;
11222;SDS011;5668;52.012;8.724;2023-04-08T08:45:17;121.97;;;109.03;;
11222;SDS011;5668;52.012;8.724;2023-04-08T08:47:45;96.57;;;86.37;;
11222;SDS011;5668;52.012;8.724;2023-04-08T08:50:14;59.10;;;52.63;;
11222;SDS011;5668;52.012;8.724;2023-04-08T08:52:46;47.57;;;42.23;;
11222;SDS011;5668;52.012;8.724;2023-04-08T08:55:14;35.97;;;32.13;;
11222;SDS011;5668;52.012;8.724;2023-04-08T08:57:44;31.63;;;26.60;;
11222;SDS011;5668;52.012;8.724;2023-04-08T09:00:12;58.10;;;49.13;;
11222;SDS011;5668;52.012;8.724;2023-04-08T09:02:41;76.47;;;68.07;;
11222;SDS011;5668;52.012;8.724;2023-04-08T09:05:08;49.23;;;44.07;;
11222;SDS011;5668;52.012;8.724;2023-04-08T09:07:37;28.17;;;25.33;;
11222;SDS011;5668;52.012;8.724;2023-04-08T09:10:06;104.30;;;87.27;;
11222;SDS011;5668;52.012;8.724;2023-04-08T09:12:51;95.70;;;84.57;;
11222;SDS011;5668;52.012;8.724;2023-04-08T09:15:20;46.13;;;41.23;;
11222;SDS011;5668;52.012;8.724;2023-04-08T09:17:47;23.03;;;19.83;;
11222;SDS011;5668;52.012;8.724;2023-04-08T09:20:14;16.27;;;14.57;;
11222;SDS011;5668;52.012;8.724;2023-04-08T09:22:56;18.03;;;14.47;;
11222;SDS011;5668;52.012;8.724;2023-04-08T09:25:26;15.10;;;12.90;;
11222;SDS011;5668;52.012;8.724;2023-04-08T09:27:54;15.77;;;12.40;;
11222;SDS011;5668;52.012;8.724;2023-04-08T09:30:22;14.93;;;12.77;;
11222;SDS011;5668;52.012;8.724;2023-04-08T09:32:52;15.50;;;13.20;;
11222;SDS011;5668;52.012;8.724;2023-04-08T09:35:20;17.50;;;14.17;;
11222;SDS011;5668;52.012;8.724;2023-04-08T09:37:48;22.00;;;18.17;;
11222;SDS011;5668;52.012;8.724;2023-04-08T09:40:20;40.83;;;36.50;;
11222;SDS011;5668;52.012;8.724;2023-04-08T09:42:50;61.30;;;55.00;;
11222;SDS011;5668;52.012;8.724;2023-04-08T09:45:20;52.20;;;46.60;;
11222;SDS011;5668;52.012;8.724;2023-04-08T09:47:52;54.43;;;48.60;;
11222;SDS011;5668;52.012;8.724;2023-04-08T09:50:23;64.43;;;57.50;;
11222;SDS011;5668;52.012;8.724;2023-04-08T09:52:56;70.33;;;62.63;;
11222;SDS011;5668;52.012;8.724;2023-04-08T09:55:30;53.57;;;47.63;;
11222;SDS011;5668;52.012;8.724;2023-04-08T09:58:03;31.30;;;27.90;;
11222;SDS011;5668;52.012;8.724;2023-04-08T10:00:39;28.17;;;25.20;;
11222;SDS011;5668;52.012;8.724;2023-04-08T10:03:15;20.90;;;18.23;;
11222;SDS011;5668;52.012;8.724;2023-04-08T10:05:52;17.43;;;14.03;;
11222;SDS011;5668;52.012;8.724;2023-04-08T10:08:21;17.03;;;13.80;;
11222;SDS011;5668;52.012;8.724;2023-04-08T10:10:51;17.00;;;13.67;;
11222;SDS011;5668;52.012;8.724;2023-04-08T10:13:20;18.37;;;13.27;;
11222;SDS011;5668;52.012;8.724;2023-04-08T10:15:48;19.30;;;13.83;;
11222;SDS011;5668;52.012;8.724;2023-04-08T10:18:31;19.87;;;13.83;;
11222;SDS011;5668;52.012;8.724;2023-04-08T10:20:58;17.83;;;14.10;;
11222;SDS011;5668;52.012;8.724;2023-04-08T10:26:30;16.93;;;13.30;;
11222;SDS011;5668;52.012;8.724;2023-04-08T10:32:08;15.23;;;11.83;;
11222;SDS011;5668;52.012;8.724;2023-04-08T10:34:53;15.60;;;12.10;;
11222;SDS011;5668;52.012;8.724;2023-04-08T10:37:20;16.57;;;12.63;;
11222;SDS011;5668;52.012;8.724;2023-04-08T10:39:48;17.63;;;12.60;;
11222;SDS011;5668;52.012;8.724;2023-04-08T10:42:18;18.07;;;12.63;;
11222;SDS011;5668;52.012;8.724;2023-04-08T10:44:45;15.40;;;12.10;;
11222;SDS011;5668;52.012;8.724;2023-04-08T10:47:12;15.07;;;12.17;;
11222;SDS011;5668;52.012;8.724;2023-04-08T10:49:40;17.53;;;12.77;;
11222;SDS011;5668;52.012;8.724;2023-04-08T10:52:07;14.50;;;12.03;;
11222;SDS011;5668;52.012;8.724;2023-04-08T10:54:35;20.40;;;12.37;;
11222;SDS011;5668;52.012;8.724;2023-04-08T10:57:03;14.33;;;12.23;;
11222;SDS011;5668;52.012;8.724;2023-04-08T10:59:32;13.83;;;11.80;;
11222;SDS011;5668;52.012;8.724;2023-04-08T11:02:00;22.43;;;18.00;;
11222;SDS011;5668;52.012;8.724;2023-04-08T11:04:28;21.20;;;18.13;;
11222;SDS011;5668;52.012;8.724;2023-04-08T11:06:55;19.47;;;15.77;;
11222;SDS011;5668;52.012;8.724;2023-04-08T11:09:23;18.73;;;13.47;;
11222;SDS011;5668;52.012;8.724;2023-04-08T11:11:51;19.23;;;13.20;;
11222;SDS011;5668;52.012;8.724;2023-04-08T11:14:18;16.90;;;12.83;;
11222;SDS011;5668;52.012;8.724;2023-04-08T11:16:47;20.00;;;12.97;;
11222;SDS011;5668;52.012;8.724;2023-04-08T11:19:15;17.90;;;13.53;;
11222;SDS011;5668;52.012;8.724;2023-04-08T11:21:43;18.93;;;14.00;;
11222;SDS011;5668;52.012;8.724;2023-04-08T11:24:12;18.37;;;13.50;;
11222;SDS011;5668;52.012;8.724;2023-04-08T11:26:40;18.87;;;13.20;;
11222;SDS011;5668;52.012;8.724;2023-04-08T11:29:08;17.23;;;13.00;;
11222;SDS011;5668;52.012;8.724;2023-04-08T11:31:38;19.83;;;14.07;;
11222;SDS011;5668;52.012;8.724;2023-04-08T11:34:08;21.13;;;14.80;;
11222;SDS011;5668;52.012;8.724;2023-04-08T11:36:36;20.13;;;14.20;;
11222;SDS011;5668;52.012;8.724;2023-04-08T11:39:06;18.90;;;14.17;;
11222;SDS011;5668;52.012;8.724;2023-04-08T11:41:34;17.67;;;13.60;;
11222;SDS011;5668;52.012;8.724;2023-04-08T11:44:03;19.37;;;14.63;;
11222;SDS011;5668;52.012;8.724;2023-04-08T11:46:31;22.83;;;16.67;;
11222;SDS011;5668;52.012;8.724;2023-04-08T11:49:00;22.53;;;16.30;;
11222;SDS011;5668;52.012;8.724;2023-04-08T11:51:33;20.57;;;16.60;;
11222;SDS011;5668;52.012;8.724;2023-04-08T11:54:03;22.10;;;16.43;;
11222;SDS011;5668;52.012;8.724;2023-04-08T11:56:42;24.03;;;15.27;;
11222;SDS011;5668;52.012;8.724;2023-04-08T11:59:10;19.70;;;16.13;;
11222;SDS011;5668;52.012;8.724;2023-04-08T12:01:38;19.90;;;14.87;;
11222;SDS011;5668;52.012;8.724;2023-04-08T12:04:05;20.13;;;14.97;;
11222;SDS011;5668;52.012;8.724;2023-04-08T12:06:35;34.00;;;16.30;;
11222;SDS011;5668;52.012;8.724;2023-04-08T12:09:02;67.20;;;18.60;;
11222;SDS011;5668;52.012;8.724;2023-04-08T12:11:30;23.63;;;14.73;;
11222;SDS011;5668;52.012;8.724;2023-04-08T12:13:57;20.23;;;14.67;;
11222;SDS011;5668;52.012;8.724;2023-04-08T12:16:25;22.07;;;14.93;;
11222;SDS011;5668;52.012;8.724;2023-04-08T12:18:52;21.10;;;15.60;;
11222;SDS011;5668;52.012;8.724;2023-04-08T12:21:19;17.53;;;15.07;;
11222;SDS011;5668;52.012;8.724;2023-04-08T12:23:48;19.67;;;14.73;;
11222;SDS011;5668;52.012;8.724;2023-04-08T12:26:16;17.80;;;14.97;;
11222;SDS011;5668;52.012;8.724;2023-04-08T12:28:43;21.87;;;15.87;;
11222;SDS011;5668;52.012;8.724;2023-04-08T12:31:11;21.23;;;15.27;;
11222;SDS011;5668;52.012;8.724;2023-04-08T12:33:38;19.50;;;15.60;;
11222;SDS011;5668;52.012;8.724;2023-04-08T12:36:06;21.10;;;15.97;;
11222;SDS011;5668;52.012;8.724;2023-04-08T12:38:33;18.47;;;14.57;;
11222;SDS011;5668;52.012;8.724;2023-04-08T12:41:02;22.70;;;15.37;;
11222;SDS011;5668;52.012;8.724;2023-04-08T12:43:30;21.70;;;15.67;;
11222;SDS011;5668;52.012;8.724;2023-04-08T12:45:58;27.00;;;16.50;;
11222;SDS011;5668;52.012;8.724;2023-04-08T12:48:27;39.13;;;19.00;;
11222;SDS011;5668;52.012;8.724;2023-04-08T12:50:54;27.33;;;16.27;;
11222;SDS011;5668;52.012;8.724;2023-04-08T12:53:22;18.20;;;13.87;;
11222;SDS011;5668;52.012;8.724;2023-04-08T12:55:49;18.77;;;15.37;;
11222;SDS011;5668;52.012;8.724;2023-04-08T12:58:22;21.03;;;18.93;;
11222;SDS011;5668;52.012;8.724;2023-04-08T13:00:50;21.27;;;17.03;;
11222;SDS011;5668;52.012;8.724;2023-04-08T13:03:17;21.57;;;16.80;;
11222;SDS011;5668;52.012;8.724;2023-04-08T13:05:44;19.57;;;14.73;;
11222;SDS011;5668;52.012;8.724;2023-04-08T13:08:12;18.53;;;15.30;;
11222;SDS011;5668;52.012;8.724;2023-04-08T13:10:40;25.10;;;21.20;;
11222;SDS011;5668;52.012;8.724;2023-04-08T13:13:08;21.77;;;19.33;;
11222;SDS011;5668;52.012;8.724;2023-04-08T13:15:37;32.87;;;29.47;;
11222;SDS011;5668;52.012;8.724;2023-04-08T13:18:04;28.60;;;25.57;;
11222;SDS011;5668;52.012;8.724;2023-04-08T13:20:31;72.23;;;64.57;;
11222;SDS011;5668;52.012;8.724;2023-04-08T13:22:59;54.17;;;46.80;;
11222;SDS011;5668;52.012;8.724;2023-04-08T13:25:27;34.37;;;28.60;;
11222;SDS011;5668;52.012;8.724;2023-04-08T13:27:54;32.23;;;28.20;;
11222;SDS011;5668;52.012;8.724;2023-04-08T13:30:21;29.80;;;25.33;;
11222;SDS011;5668;52.012;8.724;2023-04-08T13:32:50;30.17;;;25.90;;
11222;SDS011;5668;52.012;8.724;2023-04-08T13:35:17;28.20;;;21.20;;
11222;SDS011;5668;52.012;8.724;2023-04-08T13:37:45;30.53;;;26.17;;
11222;SDS011;5668;52.012;8.724;2023-04-08T13:40:12;44.33;;;36.20;;
11222;SDS011;5668;52.012;8.724;2023-04-08T13:42:40;50.77;;;41.93;;
11222;SDS011;5668;52.012;8.724;2023-04-08T13:45:08;35.17;;;29.93;;
11222;SDS011;5668;52.012;8.724;2023-04-08T13:47:36;54.57;;;45.97;;
11222;SDS011;5668;52.012;8.724;2023-04-08T13:50:05;108.80;;;89.50;;
11222;SDS011;5668;52.012;8.724;2023-04-08T13:52:35;101.83;;;78.47;;
11222;SDS011;5668;52.012;8.724;2023-04-08T13:55:03;103.00;;;81.90;;
11222;SDS011;5668;52.012;8.724;2023-04-08T13:57:31;105.67;;;86.20;;
11222;SDS011;5668;52.012;8.724;2023-04-08T13:59:58;83.60;;;65.50;;
11222;SDS011;5668;52.012;8.724;2023-04-08T14:02:25;86.87;;;69.83;;
11222;SDS011;5668;52.012;8.724;2023-04-08T14:04:52;77.77;;;60.33;;
11222;SDS011;5668;52.012;8.724;2023-04-08T14:07:21;119.97;;;92.30;;
11222;SDS011;5668;52.012;8.724;2023-04-08T14:09:49;120.13;;;86.73;;
11222;SDS011;5668;52.012;8.724;2023-04-08T14:12:16;139.43;;;101.60;;
11222;SDS011;5668;52.012;8.724;2023-04-08T14:14:43;100.40;;;73.27;;
11222;SDS011;5668;52.012;8.724;2023-04-08T14:17:10;101.93;;;74.93;;
11222;SDS011;5668;52.012;8.724;2023-04-08T14:19:38;179.57;;;119.03;;
11222;SDS011;5668;52.012;8.724;2023-04-08T14:22:06;70.17;;;55.90;;
11222;SDS011;5668;52.012;8.724;2023-04-08T14:24:34;49.03;;;42.77;;
11222;SDS011;5668;52.012;8.724;2023-04-08T14:27:01;43.23;;;35.77;;
11222;SDS011;5668;52.012;8.724;2023-04-08T14:29:29;54.00;;;46.37;;
11222;SDS011;5668;52.012;8.724;2023-04-08T14:31:56;40.90;;;33.93;;
11222;SDS011;5668;52.012;8.724;2023-04-08T14:34:23;34.90;;;30.80;;
11222;SDS011;5668;52.012;8.724;2023-04-08T14:36:51;33.80;;;29.67;;
11222;SDS011;5668;52.012;8.724;2023-04-08T14:39:18;30.43;;;27.00;;
11222;SDS011;5668;52.012;8.724;2023-04-08T14:41:47;40.83;;;36.63;;
11222;SDS011;5668;52.012;8.724;2023-04-08T14:44:14;35.27;;;31.57;;
11222;SDS011;5668;52.012;8.724;2023-04-08T14:46:41;62.93;;;55.63;;
11222;SDS011;5668;52.012;8.724;2023-04-08T14:49:08;69.40;;;62.00;;
11222;SDS011;5668;52.012;8.724;2023-04-08T14:51:35;63.40;;;56.67;;
11222;SDS011;5668;52.012;8.724;2023-04-08T14:54:03;81.53;;;72.77;;
11222;SDS011;5668;52.012;8.724;2023-04-08T14:56:30;78.43;;;69.40;;